Time;durP1;ratioP1;P1;durP2;ratioP2;P2;SDS_P1;SDS_P2;PMS_P1;PMS_P2;Temp;Humidity;BMP_temperature;BMP_pressure;BME280_temperature;BME280_humidity;BME280_pressure;Samples;Min_cycle;Max_cycle;Signal;HPM_P1;HPM_P2
2022/09/08 00:02:16;;;;;;;8.95;1.08;;;15.70;99.90;;;;;;5009334;28;20092;-47
2022/09/08 00:04:43;;;;;;;5.70;1.17;;;15.70;99.90;;;;;;5006009;28;20481;-46
2022/09/08 00:07:08;;;;;;;8.95;1.27;;;15.70;99.90;;;;;;5010097;28;20083;-50
2022/09/08 00:09:35;;;;;;;8.45;2.03;;;15.70;99.90;;;;;;5010520;28;20116;-49
2022/09/08 00:12:02;;;;;;;11.10;4.43;;;15.70;99.90;;;;;;5005716;28;20026;-47
2022/09/08 00:14:30;;;;;;;8.50;2.28;;;15.70;99.90;;;;;;5008293;28;20176;-48
2022/09/08 00:16:56;;;;;;;7.13;1.10;;;15.70;99.90;;;;;;5007330;28;20022;-53
2022/09/08 00:19:22;;;;;;;5.65;0.80;;;15.70;99.90;;;;;;5009355;28;20033;-51
2022/09/08 00:21:47;;;;;;;6.13;0.98;;;15.70;99.90;;;;;;5008964;28;20051;-52
2022/09/08 00:24:13;;;;;;;4.60;0.88;;;15.80;99.90;;;;;;5010146;28;20030;-49
2022/09/08 00:26:39;;;;;;;4.22;0.90;;;15.80;99.90;;;;;;5010498;28;20826;-46
2022/09/08 00:29:04;;;;;;;8.40;1.38;;;15.70;99.90;;;;;;5005620;28;20048;-49
2022/09/08 00:31:30;;;;;;;9.82;1.08;;;15.80;99.90;;;;;;4998986;28;20030;-47
2022/09/08 00:33:56;;;;;;;7.88;0.98;;;15.70;99.90;;;;;;4989580;28;20030;-50
2022/09/08 00:36:22;;;;;;;4.43;0.98;;;15.70;99.90;;;;;;4990314;28;20014;-48
2022/09/08 00:38:53;;;;;;;8.30;1.30;;;15.70;99.90;;;;;;4991170;28;20030;-49
2022/09/08 00:41:20;;;;;;;7.28;1.20;;;15.80;99.90;;;;;;4973030;28;20022;-51
2022/09/08 00:43:58;;;;;;;5.35;1.05;;;15.80;99.90;;;;;;5001372;28;20034;-49
2022/09/08 00:46:35;;;;;;;7.60;1.38;;;15.80;99.90;;;;;;4991356;28;20033;-50
2022/09/08 00:49:11;;;;;;;3.95;0.82;;;15.80;99.90;;;;;;4991287;28;20030;-48
2022/09/08 00:51:41;;;;;;;4.60;0.90;;;15.80;99.90;;;;;;4991337;28;20026;-48
2022/09/08 00:54:09;;;;;;;5.55;1.33;;;15.80;99.90;;;;;;4991070;28;20042;-50
2022/09/08 00:56:35;;;;;;;2.53;0.90;;;15.80;99.90;;;;;;4991612;28;20026;-48
2022/09/08 00:59:02;;;;;;;4.00;1.10;;;15.80;99.90;;;;;;4991240;28;20034;-46
2022/09/08 01:01:32;;;;;;;4.18;0.93;;;15.90;99.90;;;;;;4990780;28;20093;-47
2022/09/08 01:03:58;;;;;;;;;;;15.90;99.90;;;;;;4991614;28;20413;-48
2022/09/08 01:12:46;;;;;;;6.97;0.88;;;16.00;99.90;;;;;;5014131;28;20041;-47
2022/09/08 01:15:17;;;;;;;4.70;1.05;;;15.90;99.90;;;;;;5014289;28;21359;-45
2022/09/08 01:17:43;;;;;;;5.85;1.08;;;15.90;99.90;;;;;;5014376;28;20036;-45
2022/09/08 01:20:10;;;;;;;4.35;1.00;;;15.90;99.90;;;;;;5014258;28;20030;-53
2022/09/08 01:22:55;;;;;;;5.60;2.95;;;15.90;99.90;;;;;;5014229;28;20395;-46
2022/09/08 01:25:32;;;;;;;4.15;0.85;;;15.80;99.90;;;;;;5013960;28;20488;-47
2022/09/08 01:28:27;;;;;;;4.95;1.45;;;15.80;99.90;;;;;;5014286;28;20022;-52
2022/09/08 01:30:53;;;;;;;5.97;0.93;;;15.80;99.90;;;;;;4997771;28;20041;-50
2022/09/08 01:33:20;;;;;;;3.97;1.10;;;15.80;99.90;;;;;;5013997;28;20042;-55
2022/09/08 01:35:46;;;;;;;7.28;1.23;;;15.70;99.90;;;;;;5013468;28;20084;-48
2022/09/08 01:38:12;;;;;;;5.90;1.00;;;15.70;99.90;;;;;;5014068;28;20428;-46
2022/09/08 01:40:38;;;;;;;7.60;1.33;;;15.70;99.90;;;;;;5013836;28;20026;-46
2022/09/08 01:43:08;;;;;;;6.38;1.17;;;15.70;99.90;;;;;;5013883;28;20029;-48
2022/09/08 01:45:38;;;;;;;3.78;0.80;;;15.70;99.90;;;;;;5013437;28;20022;-46
2022/09/08 01:48:04;;;;;;;3.95;1.00;;;15.70;99.90;;;;;;5013665;28;20025;-47
2022/09/08 01:50:30;;;;;;;6.53;1.05;;;15.70;99.90;;;;;;5013490;28;20421;-43
2022/09/08 01:52:56;;;;;;;4.03;1.10;;;15.70;99.90;;;;;;5013640;28;20041;-49
2022/09/08 01:55:21;;;;;;;4.70;0.93;;;15.70;99.90;;;;;;5013392;28;20014;-51
2022/09/08 01:57:47;;;;;;;6.68;1.02;;;15.70;99.90;;;;;;5013551;28;20030;-50
2022/09/08 02:00:13;;;;;;;4.85;1.00;;;15.70;99.90;;;;;;5013475;28;20024;-47
2022/09/08 02:02:39;;;;;;;4.28;0.90;;;15.70;99.90;;;;;;5013192;28;20404;-50
2022/09/08 02:05:05;;;;;;;6.55;1.00;;;15.60;99.90;;;;;;4996010;28;20022;-48
2022/09/08 02:07:32;;;;;;;5.35;1.00;;;15.60;99.90;;;;;;5012977;28;20038;-51
2022/09/08 02:09:57;;;;;;;6.47;1.50;;;15.70;99.90;;;;;;5011466;28;20058;-48
2022/09/08 02:12:23;;;;;;;6.00;1.33;;;15.70;99.90;;;;;;4993380;28;20057;-52
2022/09/08 02:14:48;;;;;;;6.28;1.50;;;15.70;99.90;;;;;;4995494;28;20030;-50
2022/09/08 02:17:14;;;;;;;3.83;1.38;;;15.70;99.90;;;;;;4993938;28;20026;-48
2022/09/08 02:19:40;;;;;;;4.65;1.10;;;15.70;99.90;;;;;;4993313;28;20026;-48
2022/09/08 02:22:05;;;;;;;5.47;1.30;;;15.80;99.90;;;;;;4993047;28;20026;-51
2022/09/08 02:24:32;;;;;;;3.83;1.17;;;15.80;99.90;;;;;;4993070;28;20030;-53
2022/09/08 02:26:58;;;;;;;5.55;1.17;;;15.80;99.90;;;;;;4997299;28;20383;-49
2022/09/08 02:29:24;;;;;;;7.75;2.15;;;15.80;99.90;;;;;;4993352;28;20046;-49
2022/09/08 02:31:49;;;;;;;6.13;1.38;;;15.80;99.90;;;;;;4993353;28;20425;-49
2022/09/08 02:34:15;;;;;;;6.35;1.27;;;15.80;99.90;;;;;;4992961;28;20518;-52
2022/09/08 02:36:41;;;;;;;4.07;1.30;;;15.70;99.90;;;;;;4998925;28;20501;-53
2022/09/08 02:39:06;;;;;;;6.90;1.10;;;15.70;99.90;;;;;;4975836;28;20027;-50
2022/09/08 02:41:32;;;;;;;6.32;1.20;;;15.70;99.90;;;;;;4993039;28;20482;-47
2022/09/08 02:43:58;;;;;;;7.60;1.30;;;15.70;99.90;;;;;;4993085;28;20725;-48
2022/09/08 02:46:24;;;;;;;6.38;1.35;;;15.70;99.90;;;;;;4993728;28;20373;-50
2022/09/08 02:48:50;;;;;;;4.35;1.33;;;15.70;99.90;;;;;;4993028;28;20022;-52
2022/09/08 02:51:19;;;;;;;4.60;1.17;;;15.70;99.90;;;;;;4992799;28;20109;-50
2022/09/08 02:53:44;;;;;;;4.33;1.20;;;15.70;99.90;;;;;;4992936;28;20034;-48
2022/09/08 02:56:10;;;;;;;6.72;1.25;;;15.70;99.90;;;;;;5000217;28;20809;-47
2022/09/08 02:58:36;;;;;;;5.05;1.40;;;15.70;99.90;;;;;;4992824;28;20026;-46
2022/09/08 03:01:04;;;;;;;4.40;1.30;;;15.70;99.90;;;;;;4996450;28;20034;-49
2022/09/08 03:03:29;;;;;;;4.93;1.60;;;15.70;99.90;;;;;;5012216;28;20026;-55
2022/09/08 03:05:55;;;;;;;5.63;1.30;;;15.70;99.90;;;;;;5006102;28;20018;-51
2022/09/08 03:08:21;;;;;;;7.47;1.52;;;15.60;99.90;;;;;;5012308;28;20076;-58
2022/09/08 03:10:50;;;;;;;10.80;1.83;;;15.60;99.90;;;;;;5012227;28;20392;-56
2022/09/08 03:13:17;;;;;;;3.47;1.23;;;15.60;99.90;;;;;;5002352;28;20034;-47
2022/09/08 03:15:43;;;;;;;4.35;1.50;;;15.60;99.90;;;;;;5007969;28;20053;-52
2022/09/08 03:18:09;;;;;;;4.13;1.25;;;15.60;99.90;;;;;;5012051;28;20046;-47
2022/09/08 03:20:36;;;;;;;4.32;1.40;;;15.60;99.90;;;;;;5012064;28;20143;-47
2022/09/08 03:23:03;;;;;;;6.18;1.50;;;15.60;99.90;;;;;;5011904;28;20026;-51
2022/09/08 03:25:30;;;;;;;6.00;2.00;;;15.60;99.90;;;;;;5011985;28;20485;-50
2022/09/08 03:27:55;;;;;;;5.30;1.50;;;15.60;99.90;;;;;;5011826;28;20021;-51
2022/09/08 03:30:21;;;;;;;5.47;1.40;;;15.60;99.90;;;;;;5002026;28;20053;-52
2022/09/08 03:32:48;;;;;;;4.50;1.20;;;15.60;99.90;;;;;;5007789;28;20026;-55
2022/09/08 03:35:17;;;;;;;5.07;1.45;;;15.60;99.90;;;;;;5011458;28;20503;-49
2022/09/08 03:37:42;;;;;;;5.57;1.63;;;15.60;99.90;;;;;;5011663;28;20113;-51
2022/09/08 03:40:12;;;;;;;12.52;2.00;;;15.50;99.90;;;;;;5011683;28;20133;-54
2022/09/08 03:42:39;;;;;;;6.20;1.73;;;15.50;99.90;;;;;;5011857;28;20060;-48
2022/09/08 03:45:08;;;;;;;5.30;1.30;;;15.50;99.90;;;;;;5011574;28;20905;-53
2022/09/08 03:47:34;;;;;;;7.22;1.92;;;15.40;99.90;;;;;;5011644;28;20053;-57
2022/09/08 03:50:00;;;;;;;5.80;1.52;;;15.40;99.90;;;;;;5011395;28;20555;-53
2022/09/08 03:52:26;;;;;;;6.22;1.45;;;15.40;99.90;;;;;;5011651;28;20037;-47
2022/09/08 03:54:52;;;;;;;8.23;1.73;;;15.30;99.90;;;;;;5011387;28;20504;-52
2022/09/08 03:57:28;;;;;;;4.95;1.60;;;15.40;99.90;;;;;;5011483;28;20101;-53
2022/09/08 03:59:56;;;;;;;3.60;1.45;;;15.40;99.90;;;;;;5011337;28;20461;-48
2022/09/08 04:02:23;;;;;;;9.85;1.73;;;15.40;99.90;;;;;;4994240;28;20022;-53
2022/09/08 04:04:50;;;;;;;8.98;1.58;;;15.40;99.90;;;;;;5005033;28;20058;-46
2022/09/08 04:07:17;;;;;;;5.68;1.55;;;15.40;99.90;;;;;;5010762;28;20397;-49
2022/09/08 04:09:42;;;;;;;8.57;1.95;;;15.40;99.90;;;;;;5011270;28;20488;-48
2022/09/08 04:12:08;;;;;;;12.23;2.20;;;15.40;99.90;;;;;;5011084;28;20030;-46
2022/09/08 04:14:34;;;;;;;13.07;1.80;;;15.40;99.90;;;;;;5011150;28;20034;-52
2022/09/08 04:17:00;;;;;;;11.20;2.10;;;15.40;99.90;;;;;;5011062;28;20148;-48
2022/09/08 04:19:26;;;;;;;6.13;1.73;;;15.40;99.90;;;;;;5011390;28;20132;-52
2022/09/08 04:21:51;;;;;;;8.30;2.22;;;15.40;99.90;;;;;;5011245;28;20124;-51
2022/09/08 04:24:18;;;;;;;9.05;1.60;;;15.40;99.90;;;;;;5011057;28;20028;-50
2022/09/08 04:26:44;;;;;;;10.10;1.85;;;15.30;99.90;;;;;;5011175;28;20037;-50
2022/09/08 04:29:09;;;;;;;5.28;1.30;;;15.30;99.90;;;;;;5011055;28;20026;-47
2022/09/08 04:31:35;;;;;;;9.43;1.95;;;15.30;99.90;;;;;;4993451;28;20030;-47
2022/09/08 04:34:03;;;;;;;10.98;1.92;;;15.20;99.90;;;;;;5010743;28;20042;-47
2022/09/08 04:36:28;;;;;;;5.40;1.05;;;15.20;99.90;;;;;;5010797;28;20025;-47
2022/09/08 04:38:55;;;;;;;8.23;1.60;;;15.20;99.90;;;;;;5011079;28;20026;-46
2022/09/08 04:41:21;;;;;;;6.03;1.55;;;15.20;99.90;;;;;;5010815;28;20022;-48
2022/09/08 04:43:46;;;;;;;7.43;2.15;;;15.20;99.90;;;;;;5010888;28;20044;-46
2022/09/08 04:46:15;;;;;;;6.88;1.85;;;15.20;99.90;;;;;;5012207;28;20087;-47
2022/09/08 04:48:42;;;;;;;7.50;1.50;;;15.10;99.90;;;;;;5014731;28;20022;-47
2022/09/08 04:51:13;;;;;;;10.85;2.10;;;15.10;99.90;;;;;;5014834;28;20030;-46
2022/09/08 04:53:39;;;;;;;8.48;2.42;;;15.10;99.90;;;;;;5014596;28;20440;-46
2022/09/08 04:56:07;;;;;;;6.90;2.00;;;15.10;99.90;;;;;;5014592;28;20026;-56
2022/09/08 04:58:35;;;;;;;8.73;1.60;;;15.10;99.90;;;;;;4997132;28;20113;-47
2022/09/08 05:01:15;;;;;;;7.18;1.77;;;15.10;99.90;;;;;;5014719;28;20026;-50
2022/09/08 05:03:41;;;;;;;10.48;1.80;;;15.10;99.90;;;;;;4998706;28;20063;-53
2022/09/08 05:06:13;;;;;;;15.30;1.85;;;15.10;99.90;;;;;;5011315;28;20469;-48
2022/09/08 05:08:41;;;;;;;8.88;1.80;;;15.10;99.90;;;;;;5014341;28;20543;-46
2022/09/08 05:11:07;;;;;;;6.93;1.30;;;15.10;99.90;;;;;;4997153;28;20508;-45
2022/09/08 05:13:33;;;;;;;11.10;2.05;;;15.20;99.90;;;;;;5014350;28;20045;-46
2022/09/08 05:16:06;;;;;;;11.10;2.00;;;15.20;99.90;;;;;;5014613;28;20111;-48
2022/09/08 05:18:32;;;;;;;13.90;1.70;;;15.20;99.90;;;;;;5014437;28;20026;-46
2022/09/08 05:20:58;;;;;;;10.98;2.03;;;15.20;99.90;;;;;;5014032;28;20388;-50
2022/09/08 05:23:24;;;;;;;9.63;1.83;;;15.30;99.90;;;;;;5014254;28;20489;-48
2022/09/08 05:26:06;;;;;;;12.65;2.00;;;15.30;99.90;;;;;;4996457;28;20033;-49
2022/09/08 05:28:34;;;;;;;9.43;1.73;;;15.40;99.90;;;;;;5014251;28;20038;-57
2022/09/08 05:31:01;;;;;;;13.68;1.98;;;15.40;99.90;;;;;;5014112;28;20478;-45
2022/09/08 05:33:27;;;;;;;11.18;2.05;;;15.40;99.90;;;;;;4996444;28;20034;-46
2022/09/08 05:35:53;;;;;;;10.98;1.58;;;15.40;99.90;;;;;;5014151;28;20033;-47
2022/09/08 05:38:20;;;;;;;10.88;1.73;;;15.40;99.90;;;;;;5014077;28;20053;-46
2022/09/08 05:40:46;;;;;;;9.45;1.63;;;15.40;99.90;;;;;;5013919;28;20029;-46
2022/09/08 05:43:13;;;;;;;7.13;1.63;;;15.40;99.90;;;;;;5014038;28;20358;-46
2022/09/08 05:45:44;;;;;;;11.57;1.83;;;15.50;99.90;;;;;;5013802;28;20037;-49
2022/09/08 05:48:10;;;;;;;9.15;1.75;;;15.50;99.90;;;;;;5013834;28;20045;-49
2022/09/08 05:50:35;;;;;;;6.05;1.60;;;15.50;99.90;;;;;;5013733;28;20397;-51
2022/09/08 05:53:02;;;;;;;8.55;1.70;;;15.40;99.90;;;;;;5013570;28;20053;-47
2022/09/08 05:55:28;;;;;;;9.05;1.85;;;15.40;99.90;;;;;;5013565;28;20022;-48
2022/09/08 05:57:54;;;;;;;6.10;1.42;;;15.40;99.90;;;;;;5012324;28;20042;-51
2022/09/08 06:00:21;;;;;;;4.38;1.33;;;15.40;99.90;;;;;;5013463;28;20014;-46
2022/09/08 06:02:52;;;;;;;11.05;1.50;;;15.40;99.90;;;;;;5013417;28;20025;-49
2022/09/08 06:05:19;;;;;;;10.30;1.75;;;15.40;99.90;;;;;;5005703;28;20496;-51
2022/09/08 06:07:46;;;;;;;5.75;1.20;;;15.40;99.90;;;;;;5013096;28;20508;-47
2022/09/08 06:10:12;;;;;;;5.45;1.50;;;15.40;99.90;;;;;;5013317;28;20037;-47
2022/09/08 06:12:38;;;;;;;4.72;1.33;;;15.40;99.90;;;;;;5012794;28;20040;-50
2022/09/08 06:15:04;;;;;;;8.95;1.30;;;15.30;99.90;;;;;;5000280;28;20398;-47
2022/09/08 06:17:31;;;;;;;6.63;1.10;;;15.40;99.90;;;;;;4993404;28;20407;-48
2022/09/08 06:19:57;;;;;;;5.80;1.15;;;15.40;99.90;;;;;;4993380;28;20481;-51
2022/09/08 06:22:23;;;;;;;6.43;1.25;;;15.30;99.90;;;;;;4993462;28;20086;-53
2022/09/08 06:24:48;;;;;;;4.88;1.08;;;15.30;99.90;;;;;;4993439;28;20120;-47
2022/09/08 06:27:21;;;;;;;5.75;0.95;;;15.30;99.90;;;;;;4994584;28;20026;-51
2022/09/08 06:29:59;;;;;;;4.13;0.70;;;15.30;99.90;;;;;;5011060;28;20096;-53
2022/09/08 06:32:36;;;;;;;3.25;1.20;;;15.20;99.90;;;;;;5010048;28;20033;-46
2022/09/08 06:35:24;;;;;;;6.80;0.98;;;15.20;99.90;;;;;;5011877;28;20038;-50
2022/09/08 06:37:52;;;;;;;3.83;1.00;;;15.20;99.90;;;;;;5008500;28;20030;-50
2022/09/08 06:40:35;;;;;;;5.57;1.08;;;15.10;99.90;;;;;;5001829;28;20030;-51
2022/09/08 06:43:18;;;;;;;2.85;0.70;;;15.20;99.90;;;;;;4992759;28;20050;-46
2022/09/08 06:45:50;;;;;;;3.83;0.90;;;15.20;99.90;;;;;;4993031;28;20034;-47
2022/09/08 06:48:26;;;;;;;4.93;1.20;;;15.20;99.90;;;;;;4993013;28;20023;-51
2022/09/08 06:51:03;;;;;;;3.45;0.70;;;15.20;99.90;;;;;;4993042;28;20030;-51
2022/09/08 06:53:35;;;;;;;6.65;1.23;;;15.10;99.90;;;;;;5005950;28;20422;-47
2022/09/08 06:56:21;;;;;;;8.13;1.65;;;15.00;99.90;;;;;;4997020;28;20101;-47
2022/09/08 06:58:47;;;;;;;5.18;1.30;;;15.00;99.90;;;;;;4991966;28;20489;-45
2022/09/08 07:01:28;;;;;;;8.18;1.42;;;15.00;99.90;;;;;;4986542;28;20022;-46
2022/09/08 07:04:12;;;;;;;8.20;2.20;;;15.00;99.90;;;;;;4995228;28;20029;-52
2022/09/08 07:07:05;;;;;;;3.42;1.02;;;15.10;99.90;;;;;;5012317;28;20120;-50
2022/09/08 07:09:37;;;;;;;7.10;1.42;;;15.10;99.90;;;;;;5000950;28;20042;-47
2022/09/08 07:12:25;;;;;;;7.20;1.30;;;15.10;99.90;;;;;;5012204;28;20108;-49
2022/09/08 07:15:15;;;;;;;3.50;1.00;;;15.10;99.90;;;;;;5011929;28;20038;-46
2022/09/08 07:18:13;;;;;;;4.70;0.98;;;15.20;99.90;;;;;;4998854;28;20076;-51
2022/09/08 07:20:38;;;;;;;4.75;1.02;;;15.10;99.90;;;;;;4985909;28;20034;-45
2022/09/08 07:23:21;;;;;;;2.70;0.80;;;15.10;99.90;;;;;;5002730;28;20084;-49
2022/09/08 07:25:56;;;;;;;4.90;1.20;;;15.10;99.90;;;;;;4992075;28;20030;-48
2022/09/08 07:28:26;;;;;;;4.43;1.35;;;15.20;99.90;;;;;;4992152;28;20018;-50
2022/09/08 07:31:00;;;;;;;5.68;1.20;;;15.20;99.90;;;;;;4992174;28;20029;-48
2022/09/08 07:33:41;;;;;;;4.38;1.40;;;15.20;99.90;;;;;;4991964;28;20022;-45
2022/09/08 07:36:25;;;;;;;4.13;1.20;;;15.20;99.90;;;;;;4993633;28;20620;-50
2022/09/08 07:38:57;;;;;;;2.08;1.00;;;15.30;99.90;;;;;;4990706;28;20030;-48
2022/09/08 07:41:36;;;;;;;4.00;1.00;;;15.30;99.90;;;;;;4989870;28;20069;-49
2022/09/08 07:44:11;;;;;;;2.92;0.90;;;15.30;99.90;;;;;;4990199;28;20127;-55
2022/09/08 07:47:05;;;;;;;4.72;1.20;;;15.40;99.90;;;;;;4989870;28;20037;-45
2022/09/08 07:49:48;;;;;;;5.38;1.02;;;15.50;99.90;;;;;;4990287;28;20367;-46
2022/09/08 07:52:40;;;;;;;4.05;1.05;;;15.50;99.90;;;;;;4994163;28;20393;-46
2022/09/08 07:55:15;;;;;;;3.00;0.95;;;15.50;99.90;;;;;;5003903;28;20041;-49
2022/09/08 07:58:08;;;;;;;6.07;1.08;;;15.70;99.90;;;;;;4993503;28;20030;-45
2022/09/08 08:00:43;;;;;;;3.42;1.20;;;15.80;99.90;;;;;;4992441;28;20035;-48
2022/09/08 08:03:47;;;;;;;3.95;1.45;;;15.90;99.90;;;;;;4991691;28;20540;-46
2022/09/08 08:06:44;;;;;;;4.97;1.15;;;16.00;99.90;;;;;;5001706;28;20069;-49
2022/09/08 08:09:27;;;;;;;7.43;1.17;;;16.00;99.90;;;;;;5009278;28;20033;-50
2022/09/08 08:12:08;;;;;;;8.73;1.63;;;15.90;99.90;;;;;;5008171;28;20034;-43
2022/09/08 08:14:43;;;;;;;5.35;1.10;;;15.90;99.90;;;;;;4992177;28;20030;-51
2022/09/08 08:17:21;;;;;;;7.78;1.45;;;15.90;99.90;;;;;;4991619;28;20032;-49
2022/09/08 08:19:55;;;;;;;7.63;1.30;;;15.90;99.90;;;;;;4991319;28;20416;-51
2022/09/08 08:22:42;;;;;;;9.18;1.38;;;16.00;99.90;;;;;;4991255;28;20022;-48
2022/09/08 08:25:21;;;;;;;7.93;1.30;;;16.10;99.90;;;;;;4991470;28;20058;-48
2022/09/08 08:28:20;;;;;;;8.60;1.60;;;16.20;99.90;;;;;;4999534;28;20125;-49
2022/09/08 08:31:00;;;;;;;7.43;1.77;;;16.40;99.90;;;;;;4977001;28;20532;-46
2022/09/08 08:33:35;;;;;;;6.65;1.60;;;16.50;99.90;;;;;;5007802;28;20045;-50
2022/09/08 08:36:09;;;;;;;7.25;1.65;;;16.50;99.90;;;;;;5001877;28;20489;-50
2022/09/08 08:39:01;;;;;;;10.65;1.92;;;16.50;99.90;;;;;;4991026;28;20117;-53
2022/09/08 08:41:35;;;;;;;7.63;1.92;;;16.70;99.90;;;;;;5000993;28;20101;-54
2022/09/08 08:44:33;;;;;;;8.98;2.28;;;17.00;99.90;;;;;;5003831;28;20359;-49
2022/09/08 08:47:01;;;;;;;7.93;1.83;;;17.40;99.90;;;;;;4991223;28;20101;-46
2022/09/08 08:50:06;;;;;;;8.93;2.00;;;17.60;99.90;;;;;;4996914;28;20064;-54
2022/09/08 08:52:50;;;;;;;8.43;1.60;;;17.80;99.90;;;;;;4980031;28;20026;-50
2022/09/08 08:55:18;;;;;;;10.48;1.95;;;17.80;99.90;;;;;;4991240;28;20023;-52
2022/09/08 08:58:06;;;;;;;9.48;2.08;;;17.70;99.90;;;;;;4991053;28;20039;-46
2022/09/08 09:00:58;;;;;;;10.13;2.00;;;17.50;99.90;;;;;;4994585;28;20577;-46
2022/09/08 09:03:59;;;;;;;10.20;2.25;;;17.50;99.90;;;;;;4991155;28;20026;-46
2022/09/08 09:06:53;;;;;;;12.52;2.30;;;17.60;99.90;;;;;;4984855;28;20022;-46
2022/09/08 09:09:24;;;;;;;13.20;2.35;;;17.60;99.90;;;;;;4994398;28;20517;-52
2022/09/08 09:12:03;;;;;;;13.20;2.90;;;17.70;99.90;;;;;;5008600;28;20041;-48
2022/09/08 09:14:28;;;;;;;17.58;2.97;;;17.70;99.90;;;;;;5008904;28;20030;-46
2022/09/08 09:17:06;;;;;;;17.48;2.95;;;17.80;99.90;;;;;;5002293;28;20080;-51
2022/09/08 09:19:50;;;;;;;17.63;2.72;;;18.70;99.90;;;;;;5001698;28;20018;-53
2022/09/08 09:22:46;;;;;;;11.73;2.22;;;19.50;99.90;;;;;;5005150;28;20021;-51
2022/09/08 09:25:39;;;;;;;16.17;3.22;;;19.60;99.90;;;;;;5004431;28;20120;-46
2022/09/08 09:28:23;;;;;;;14.02;2.30;;;19.20;99.90;;;;;;5001899;28;20076;-47
2022/09/08 09:31:15;;;;;;;8.32;1.83;;;18.70;99.90;;;;;;4984322;28;20129;-50
2022/09/08 09:33:57;;;;;;;8.25;1.60;;;18.30;99.90;;;;;;5013346;28;20033;-51
2022/09/08 09:36:23;;;;;;;12.23;2.20;;;18.00;99.90;;;;;;4991806;28;20444;-47
2022/09/08 09:38:59;;;;;;;11.70;2.30;;;17.80;99.90;;;;;;5012887;28;20764;-46
2022/09/08 09:41:56;;;;;;;13.15;2.42;;;17.60;99.90;;;;;;4998913;28;20034;-49
2022/09/08 09:44:24;;;;;;;12.50;2.60;;;17.60;99.90;;;;;;4994236;28;20015;-49
2022/09/08 09:47:28;;;;;;;14.38;3.13;;;17.50;99.90;;;;;;5012400;28;20030;-47
2022/09/08 09:50:21;;;;;;;11.30;2.50;;;17.40;99.90;;;;;;5004769;28;20121;-48
2022/09/08 09:53:03;;;;;;;15.40;2.88;;;17.60;99.90;;;;;;5009843;28;20026;-48
2022/09/08 09:55:47;;;;;;;19.20;3.88;;;18.10;99.90;;;;;;5007890;28;20038;-49
2022/09/08 09:58:36;;;;;;;14.57;2.67;;;18.40;99.90;;;;;;4993867;28;20018;-46
2022/09/08 10:01:30;;;;;;;14.02;2.90;;;19.10;99.90;;;;;;4990304;28;20049;-47
2022/09/08 10:04:23;;;;;;;20.42;3.58;;;19.70;99.90;;;;;;5000627;28;20034;-50
2022/09/08 10:07:13;;;;;;;14.35;2.80;;;19.80;99.90;;;;;;4997482;28;20762;-46
2022/09/08 10:09:54;;;;;;;13.35;2.80;;;20.60;99.90;;;;;;4987809;28;20042;-48
2022/09/08 10:12:40;;;;;;;20.05;3.30;;;20.90;99.90;;;;;;5006376;28;20913;-51
2022/09/08 10:15:33;;;;;;;14.68;3.00;;;21.70;99.90;;;;;;5004684;28;20033;-48
2022/09/08 10:18:17;;;;;;;16.88;2.75;;;23.10;99.90;;;;;;4983444;28;20034;-52
2022/09/08 10:21:01;;;;;;;17.83;2.67;;;23.40;99.90;;;;;;5009603;28;20495;-48
2022/09/08 10:23:58;;;;;;;15.25;2.70;;;22.90;99.90;;;;;;5006779;28;20045;-48
2022/09/08 10:26:24;;;;;;;14.07;2.78;;;22.40;99.90;;;;;;5009068;28;20108;-53
2022/09/08 10:29:08;;;;;;;16.35;3.35;;;21.70;99.90;;;;;;5010385;28;20057;-48
2022/09/08 10:31:57;;;;;;;14.98;3.25;;;21.00;99.90;;;;;;5010457;28;20026;-48
2022/09/08 10:34:29;;;;;;;14.48;3.00;;;20.10;99.90;;;;;;5011437;28;20061;-52
2022/09/08 10:37:15;;;;;;;16.25;3.15;;;19.40;99.90;;;;;;5004170;28;20026;-52
2022/09/08 10:40:04;;;;;;;19.55;3.55;;;19.00;99.90;;;;;;5008266;28;20025;-49
2022/09/08 10:42:46;;;;;;;18.33;3.47;;;18.60;99.90;;;;;;4981514;28;20041;-49
2022/09/08 10:45:33;;;;;;;14.65;2.60;;;18.30;99.90;;;;;;5005749;28;20055;-53
2022/09/08 10:48:17;;;;;;;17.52;3.38;;;18.10;99.90;;;;;;5004563;28;20025;-53
2022/09/08 10:50:48;;;;;;;17.33;3.03;;;18.00;99.90;;;;;;5004679;28;20038;-49
2022/09/08 10:53:26;;;;;;;17.15;3.13;;;18.00;99.90;;;;;;5006478;28;20034;-55
2022/09/08 10:56:03;;;;;;;14.25;2.80;;;18.00;99.90;;;;;;5007003;28;20506;-53
2022/09/08 10:58:49;;;;;;;21.75;3.42;;;18.00;99.90;;;;;;5008346;28;20030;-49
2022/09/08 11:01:42;;;;;;;18.65;2.88;;;18.00;99.90;;;;;;5006277;28;20018;-57
2022/09/08 11:04:46;;;;;;;18.52;3.15;;;18.10;99.90;;;;;;5007672;28;20037;-52
2022/09/08 11:07:30;;;;;;;13.63;2.88;;;18.10;99.90;;;;;;5009271;28;20474;-51
2022/09/08 11:10:28;;;;;;;12.73;2.70;;;18.20;99.90;;;;;;5007353;28;20160;-52
2022/09/08 11:13:09;;;;;;;17.92;3.60;;;18.30;99.90;;;;;;5000783;28;20026;-52
2022/09/08 11:15:40;;;;;;;19.65;2.92;;;18.30;99.90;;;;;;5003617;28;20033;-55
2022/09/08 11:18:19;;;;;;;16.52;3.03;;;18.40;99.90;;;;;;5010358;28;20102;-50
2022/09/08 11:20:55;;;;;;;11.70;2.40;;;18.30;99.90;;;;;;5003426;28;20026;-49
2022/09/08 11:23:38;;;;;;;9.95;2.45;;;18.20;99.90;;;;;;5005967;28;20362;-48
2022/09/08 11:26:12;;;;;;;17.52;3.22;;;18.00;99.90;;;;;;5006627;28;20021;-52
2022/09/08 11:28:41;;;;;;;10.43;1.92;;;17.70;99.90;;;;;;5008387;28;20034;-51
2022/09/08 11:31:31;;;;;;;12.68;2.58;;;17.50;99.90;;;;;;5003605;28;20030;-52
2022/09/08 11:34:12;;;;;;;18.08;2.47;;;17.30;99.90;;;;;;5004049;28;20432;-54
2022/09/08 11:37:00;;;;;;;13.70;2.50;;;17.50;99.90;;;;;;5004156;28;20025;-50
2022/09/08 11:39:26;;;;;;;12.63;2.25;;;17.70;99.90;;;;;;5007107;28;20042;-52
2022/09/08 11:42:17;;;;;;;13.10;2.17;;;17.90;99.90;;;;;;4996989;28;20068;-52
2022/09/08 11:45:13;;;;;;;15.57;2.95;;;18.20;99.90;;;;;;5002355;28;20053;-50
2022/09/08 11:48:11;;;;;;;14.95;2.83;;;18.30;99.90;;;;;;5002623;28;20057;-53
2022/09/08 11:51:04;;;;;;;16.20;3.08;;;18.30;99.90;;;;;;5001426;28;20469;-53
2022/09/08 11:53:59;;;;;;;13.45;2.78;;;18.10;99.90;;;;;;4998473;28;20045;-51
2022/09/08 11:56:56;;;;;;;18.67;3.60;;;17.90;99.90;;;;;;4999253;28;20658;-57
2022/09/08 11:59:30;;;;;;;13.95;2.80;;;17.60;99.90;;;;;;5005238;28;20467;-53
2022/09/08 12:02:33;;;;;;;14.73;2.78;;;17.40;99.90;;;;;;5009440;28;20060;-50
2022/09/08 12:05:39;;;;;;;8.52;1.58;;;17.30;99.90;;;;;;5004538;28;20034;-50
2022/09/08 12:08:23;;;;;;;5.72;1.50;;;17.10;99.90;;;;;;5006662;28;20628;-51
2022/09/08 12:11:24;;;;;;;8.40;1.50;;;16.90;99.90;;;;;;5009054;28;20096;-54
2022/09/08 12:14:06;;;;;;;6.70;2.03;;;16.70;99.90;;;;;;5008283;28;20544;-52
2022/09/08 12:16:42;;;;;;;8.57;1.70;;;16.50;99.90;;;;;;5004600;28;20408;-50
2022/09/08 12:19:39;;;;;;;8.30;1.63;;;16.40;99.90;;;;;;5006824;28;20456;-53
2022/09/08 12:22:19;;;;;;;10.70;1.50;;;16.20;99.90;;;;;;5007212;28;20017;-55
2022/09/08 12:25:03;;;;;;;9.70;1.90;;;16.20;99.90;;;;;;5005128;28;20599;-52
2022/09/08 12:27:47;;;;;;;14.13;2.20;;;16.30;99.90;;;;;;5003897;28;20030;-48
2022/09/08 12:30:21;;;;;;;9.15;1.92;;;16.30;99.90;;;;;;5003217;28;20026;-58
2022/09/08 12:33:04;;;;;;;11.43;2.03;;;16.60;99.90;;;;;;4999480;28;20116;-49
2022/09/08 12:35:35;;;;;;;13.18;2.42;;;16.90;99.90;;;;;;5007492;28;20061;-45
2022/09/08 12:38:22;;;;;;;16.90;2.28;;;17.20;99.90;;;;;;5005806;28;20489;-51
2022/09/08 12:41:08;;;;;;;10.60;2.28;;;17.40;99.90;;;;;;5002627;28;20022;-46
2022/09/08 12:43:43;;;;;;;13.50;2.47;;;17.50;99.90;;;;;;5004306;28;20026;-44
2022/09/08 12:46:18;;;;;;;11.63;2.30;;;17.60;99.90;;;;;;5006382;28;20096;-44
2022/09/08 12:49:08;;;;;;;14.48;2.42;;;17.50;99.90;;;;;;5000057;28;20034;-53
2022/09/08 12:51:36;;;;;;;21.08;3.10;;;17.60;99.90;;;;;;5000079;28;20025;-46
2022/09/08 12:54:07;;;;;;;16.05;2.75;;;17.50;99.90;;;;;;4995512;28;20042;-49
2022/09/08 12:56:36;;;;;;;15.48;2.75;;;17.60;99.90;;;;;;5002789;28;20101;-46
2022/09/08 12:59:02;;;;;;;19.83;2.97;;;17.70;99.90;;;;;;5007751;28;20026;-49
2022/09/08 13:01:42;;;;;;;16.38;2.83;;;17.80;99.90;;;;;;5003885;28;20497;-45
2022/09/08 13:04:38;;;;;;;16.05;3.15;;;18.40;99.90;;;;;;4989694;28;20104;-49
2022/09/08 13:07:16;;;;;;;12.52;3.17;;;18.70;99.90;;;;;;5006077;28;20539;-54
2022/09/08 13:10:13;;;;;;;18.52;3.40;;;18.50;99.90;;;;;;5003744;28;20137;-47
2022/09/08 13:13:01;;;;;;;19.02;3.50;;;18.40;99.90;;;;;;4996138;28;20474;-46
2022/09/08 13:15:34;;;;;;;15.95;2.80;;;18.20;99.90;;;;;;4999009;28;20039;-44
2022/09/08 13:18:08;;;;;;;16.80;2.97;;;18.20;99.90;;;;;;4997939;28;20408;-46
2022/09/08 13:20:42;;;;;;;13.93;2.60;;;18.70;99.90;;;;;;5008949;28;20030;-44
2022/09/08 13:23:35;;;;;;;17.20;3.97;;;19.10;99.90;;;;;;5010872;28;20037;-47
2022/09/08 13:26:35;;;;;;;14.48;2.90;;;19.10;99.90;;;;;;5004746;28;20034;-45
2022/09/08 13:29:37;;;;;;;20.30;3.13;;;19.10;99.90;;;;;;4994771;28;20026;-53
2022/09/08 13:32:21;;;;;;;15.98;2.70;;;18.90;99.90;;;;;;4986250;28;20042;-45